createdAt,value
2019-03-05T00:01:59.122Z,2.50
2019-03-05T00:04:28.345Z,1.95
2019-03-05T00:06:57.517Z,2.47
2019-03-05T00:09:26.640Z,2.35
2019-03-05T00:11:55.796Z,2.60
2019-03-05T00:14:24.962Z,1.95
2019-03-05T00:16:54.170Z,2.02
2019-03-05T00:19:23.337Z,1.77
2019-03-05T00:21:52.455Z,2.85
2019-03-05T00:24:40.039Z,1.80
2019-03-05T00:27:09.173Z,1.98
2019-03-05T00:29:39.855Z,1.80
2019-03-05T00:32:09.065Z,2.00
2019-03-05T00:34:42.449Z,1.95
2019-03-05T00:37:13.033Z,1.87
2019-03-05T00:39:43.670Z,2.05
2019-03-05T00:42:32.086Z,1.80
2019-03-05T00:45:05.376Z,1.70
2019-03-05T00:47:36.026Z,1.57
2019-03-05T00:50:06.636Z,2.02
2019-03-05T00:52:40.019Z,2.22
2019-03-05T00:55:10.696Z,1.52
2019-03-05T00:57:50.478Z,1.80
2019-03-05T01:00:24.479Z,2.40
2019-03-05T01:03:01.175Z,2.12
2019-03-05T01:05:35.015Z,2.10
2019-03-05T01:08:04.253Z,2.45
2019-03-05T01:10:33.535Z,2.75
2019-03-05T01:13:02.773Z,2.90
2019-03-05T01:15:32.241Z,2.87
2019-03-05T01:18:01.336Z,3.15
2019-03-05T01:20:30.502Z,2.60
2019-03-05T01:22:59.714Z,3.05
2019-03-05T01:25:29.945Z,2.90
2019-03-05T01:27:59.086Z,2.85
2019-03-05T01:30:30.266Z,2.40
2019-03-05T01:33:01.078Z,3.15
2019-03-05T01:35:31.856Z,2.55
2019-03-05T01:38:01.028Z,3.05
2019-03-05T01:40:31.841Z,2.87
2019-03-05T01:43:01.069Z,3.42
2019-03-05T01:45:30.219Z,2.70
2019-03-05T01:47:59.377Z,2.45
2019-03-05T01:50:28.598Z,3.30
2019-03-05T01:52:57.769Z,2.80
2019-03-05T01:55:26.938Z,2.70
2019-03-05T01:57:56.078Z,2.87
2019-03-05T02:00:25.241Z,2.52
2019-03-05T02:02:54.460Z,3.27
2019-03-05T02:05:23.612Z,2.62
2019-03-05T02:07:52.754Z,3.47
2019-03-05T02:10:22.716Z,3.30
2019-03-05T02:12:51.992Z,3.08
2019-03-05T02:15:21.129Z,2.90
2019-03-05T02:17:50.343Z,2.70
2019-03-05T02:20:20.929Z,2.75
2019-03-05T02:22:57.556Z,2.75
2019-03-05T02:25:31.120Z,2.30
2019-03-05T02:28:10.726Z,2.52
2019-03-05T02:30:59.617Z,2.52
2019-03-05T02:33:48.235Z,2.17
2019-03-05T02:36:35.550Z,2.00
2019-03-05T02:39:22.781Z,2.30
2019-03-05T02:41:53.416Z,2.10
2019-03-05T02:44:24.043Z,2.27
2019-03-05T02:46:54.699Z,2.15
2019-03-05T02:49:28.586Z,2.00
2019-03-05T02:52:02.231Z,1.60
2019-03-05T02:54:35.875Z,2.02
2019-03-05T02:57:07.867Z,1.98
2019-03-05T02:59:37.092Z,2.20
2019-03-05T03:02:08.408Z,2.15
2019-03-05T03:04:41.679Z,2.22
2019-03-05T03:07:10.908Z,2.75
2019-03-05T03:09:41.589Z,2.00
2019-03-05T03:12:10.800Z,2.00
2019-03-05T03:14:39.941Z,1.87
2019-03-05T03:17:09.105Z,2.20
2019-03-05T03:19:38.248Z,1.80
2019-03-05T03:22:07.396Z,1.72
2019-03-05T03:24:36.524Z,1.62
2019-03-05T03:27:06.725Z,1.60
2019-03-05T03:29:35.893Z,1.70
2019-03-05T03:32:05.075Z,1.95
2019-03-05T03:34:34.314Z,1.95
2019-03-05T03:37:03.449Z,1.75
2019-03-05T03:39:32.596Z,1.52
2019-03-05T03:42:01.738Z,2.05
2019-03-05T03:44:30.905Z,1.50
2019-03-05T03:47:00.095Z,1.70
2019-03-05T03:49:29.293Z,1.55
2019-03-05T03:51:58.509Z,1.70
2019-03-05T03:54:27.670Z,1.70
2019-03-05T03:56:56.780Z,1.50
2019-03-05T03:59:25.981Z,2.10
2019-03-05T04:01:55.091Z,1.45
2019-03-05T04:04:24.396Z,1.57
2019-03-05T04:06:53.578Z,1.70
2019-03-05T04:09:22.715Z,1.30
2019-03-05T04:11:51.869Z,1.37
2019-03-05T04:14:22.950Z,1.55
2019-03-05T04:16:52.047Z,1.20
2019-03-05T04:19:22.858Z,1.55
2019-03-05T04:21:52.004Z,1.60
2019-03-05T04:24:22.346Z,1.40
2019-03-05T04:26:51.515Z,1.20
2019-03-05T04:29:20.662Z,1.22
2019-03-05T04:31:49.846Z,1.32
2019-03-05T04:34:18.987Z,1.92
2019-03-05T04:36:48.169Z,1.25
2019-03-05T04:39:17.333Z,1.00
2019-03-05T04:41:46.447Z,1.22
2019-03-05T04:44:17.259Z,1.50
2019-03-05T04:46:48.086Z,1.22
2019-03-05T04:49:34.063Z,1.47
2019-03-05T04:52:07.638Z,1.47
2019-03-05T04:54:36.750Z,1.75
2019-03-05T04:57:06.013Z,1.20
2019-03-05T04:59:35.253Z,2.05
2019-03-05T05:02:04.460Z,1.32
2019-03-05T05:04:33.627Z,1.75
2019-03-05T05:07:02.806Z,1.02
2019-03-05T05:09:31.956Z,1.12
2019-03-05T05:12:01.127Z,1.15
2019-03-05T05:14:30.341Z,1.12
2019-03-05T05:16:59.511Z,1.52
2019-03-05T05:19:28.682Z,1.50
2019-03-05T05:21:57.874Z,1.55
2019-03-05T05:24:27.117Z,1.22
2019-03-05T05:26:56.350Z,1.40
2019-03-05T05:29:25.499Z,1.62
2019-03-05T05:31:54.747Z,1.35
2019-03-05T05:34:23.951Z,1.50
2019-03-05T05:36:54.179Z,1.45
2019-03-05T05:39:41.482Z,1.70
2019-03-05T05:42:10.599Z,1.95
2019-03-05T05:44:39.845Z,1.37
2019-03-05T05:47:09.061Z,1.80
2019-03-05T05:49:38.231Z,1.75
2019-03-05T05:52:07.416Z,1.40
2019-03-05T05:54:36.566Z,2.27
2019-03-05T05:57:05.712Z,1.95
2019-03-05T05:59:34.910Z,1.62
2019-03-05T06:02:04.150Z,1.85
2019-03-05T06:04:33.362Z,1.57
2019-03-05T06:07:02.575Z,1.60
2019-03-05T06:09:31.790Z,2.25
2019-03-05T06:12:01.039Z,1.45
2019-03-05T06:14:30.214Z,1.72
2019-03-05T06:16:59.381Z,2.12
2019-03-05T06:19:28.597Z,2.08
2019-03-05T06:21:57.834Z,1.67
2019-03-05T06:24:27.090Z,1.50
2019-03-05T06:26:56.330Z,1.35
2019-03-05T06:29:25.534Z,1.70
2019-03-05T06:31:54.832Z,1.90
2019-03-05T06:34:24.034Z,1.77
2019-03-05T06:36:53.870Z,1.77
2019-03-05T06:39:24.096Z,1.57
2019-03-05T06:41:53.329Z,1.42
2019-03-05T06:44:22.553Z,1.90
2019-03-05T06:46:51.860Z,1.90
2019-03-05T06:49:21.105Z,1.75
2019-03-05T06:51:50.375Z,1.72
2019-03-05T06:54:19.583Z,1.57
2019-03-05T06:56:48.793Z,1.65
2019-03-05T06:59:18.124Z,1.25
2019-03-05T07:01:47.395Z,1.50
2019-03-05T07:04:16.786Z,1.50
2019-03-05T07:06:52.912Z,1.20
2019-03-05T07:09:32.391Z,1.30
2019-03-05T07:12:08.847Z,0.90
2019-03-05T07:14:39.535Z,0.80
2019-03-05T07:17:13.951Z,0.75
2019-03-05T07:19:44.740Z,0.82
2019-03-05T07:22:15.436Z,1.77
2019-03-05T07:24:48.390Z,1.17
2019-03-05T07:27:19.230Z,1.05
2019-03-05T07:29:49.481Z,1.30
2019-03-05T07:32:18.797Z,1.72
2019-03-05T07:34:49.630Z,1.45
2019-03-05T07:37:18.841Z,1.82
2019-03-05T07:39:48.091Z,2.45
2019-03-05T07:42:17.288Z,2.00
2019-03-05T07:44:46.584Z,2.22
2019-03-05T07:47:15.795Z,1.80
2019-03-05T07:49:45.110Z,1.52
2019-03-05T07:52:14.334Z,1.87
2019-03-05T07:54:43.488Z,2.00
2019-03-05T07:57:12.687Z,1.95
2019-03-05T07:59:42.009Z,1.70
2019-03-05T08:02:11.320Z,2.45
2019-03-05T08:04:40.522Z,1.82
2019-03-05T08:07:09.756Z,1.65
2019-03-05T08:09:39.007Z,1.47
2019-03-05T08:12:10.778Z,1.77
2019-03-05T08:14:47.569Z,1.72
2019-03-05T08:17:16.858Z,1.62
2019-03-05T08:19:46.068Z,1.70
2019-03-05T08:22:15.224Z,1.60
2019-03-05T08:24:44.440Z,1.45
2019-03-05T08:27:13.733Z,1.25
2019-03-05T08:29:42.955Z,1.22
2019-03-05T08:32:12.461Z,1.62
2019-03-05T08:34:41.680Z,1.30
2019-03-05T08:37:13.350Z,1.60
2019-03-05T08:39:42.839Z,1.60
2019-03-05T08:42:12.078Z,1.20
2019-03-05T08:44:50.007Z,1.77
2019-03-05T08:47:12.260Z,1.30
2019-03-05T08:49:41.478Z,1.10
2019-03-05T08:52:10.782Z,1.47
2019-03-05T08:54:39.971Z,1.05
2019-03-05T08:57:09.279Z,1.40
2019-03-05T08:59:38.472Z,0.82
2019-03-05T09:02:07.701Z,0.68
2019-03-05T09:04:36.914Z,1.00
2019-03-05T09:07:07.076Z,0.90
2019-03-05T09:09:36.226Z,1.00
2019-03-05T09:12:05.475Z,1.32
2019-03-05T09:14:34.764Z,1.15
2019-03-05T09:17:04.994Z,0.75
2019-03-05T09:19:34.235Z,1.00
2019-03-05T09:22:03.542Z,1.25
2019-03-05T09:24:32.852Z,1.15
2019-03-05T09:27:02.073Z,0.95
2019-03-05T09:29:31.282Z,1.10
2019-03-05T09:32:00.520Z,1.70
2019-03-05T09:34:29.752Z,1.10
2019-03-05T09:36:58.892Z,1.10
2019-03-05T09:39:28.188Z,0.90
2019-03-05T09:41:57.291Z,1.05
2019-03-05T09:44:26.510Z,1.22
2019-03-05T09:46:55.678Z,1.02
2019-03-05T09:49:25.899Z,0.90
2019-03-05T09:51:55.116Z,0.90
2019-03-05T09:54:24.302Z,1.30
2019-03-05T09:56:53.452Z,1.15
2019-03-05T09:59:22.666Z,1.10
2019-03-05T10:01:51.875Z,1.17
2019-03-05T10:04:21.202Z,0.88
2019-03-05T10:06:50.489Z,0.80
2019-03-05T10:09:19.744Z,1.10
2019-03-05T10:11:56.318Z,0.85
2019-03-05T10:14:19.929Z,1.45
2019-03-05T10:16:49.166Z,1.27
2019-03-05T10:19:18.422Z,1.00
2019-03-05T10:21:47.739Z,1.05
2019-03-05T10:24:17.057Z,1.20
2019-03-05T10:26:47.497Z,1.30
2019-03-05T10:29:16.761Z,1.15
2019-03-05T10:31:46.046Z,1.10
2019-03-05T10:34:15.211Z,2.50
2019-03-05T10:36:44.395Z,0.80
2019-03-05T10:39:30.557Z,1.07
2019-03-05T10:41:54.736Z,1.37
2019-03-05T10:44:24.013Z,0.95
2019-03-05T10:46:55.935Z,0.88
2019-03-05T10:49:24.127Z,1.00
2019-03-05T10:51:53.367Z,0.90
2019-03-05T10:54:22.564Z,1.17
2019-03-05T10:56:51.791Z,0.90
2019-03-05T10:59:21.048Z,1.07
2019-03-05T11:01:50.336Z,1.20
2019-03-05T11:04:19.641Z,1.55
2019-03-05T11:06:49.866Z,1.02
2019-03-05T11:09:21.313Z,0.90
2019-03-05T11:11:50.314Z,1.10
2019-03-05T11:14:19.536Z,1.15
2019-03-05T11:16:50.012Z,1.22
2019-03-05T11:19:19.339Z,1.17
2019-03-05T11:21:48.559Z,1.20
2019-03-05T11:24:17.834Z,1.12
2019-03-05T11:26:47.117Z,1.10
2019-03-05T11:29:16.339Z,1.52
2019-03-05T11:31:45.617Z,0.90
2019-03-05T11:34:14.842Z,1.30
2019-03-05T11:36:44.063Z,1.27
2019-03-05T11:39:13.280Z,0.85
2019-03-05T11:41:42.587Z,0.60
2019-03-05T11:44:11.798Z,0.53
2019-03-05T11:46:41.029Z,0.70
2019-03-05T11:49:10.220Z,0.70
2019-03-05T11:51:41.013Z,0.70
2019-03-05T11:54:10.132Z,0.60
2019-03-05T11:56:39.353Z,0.40
2019-03-05T11:59:09.557Z,0.57
2019-03-05T12:01:38.794Z,0.47
2019-03-05T12:04:07.926Z,0.60
2019-03-05T12:06:37.170Z,0.60
2019-03-05T12:09:06.409Z,0.80
2019-03-05T12:11:36.309Z,0.75
2019-03-05T12:14:05.540Z,0.60
2019-03-05T12:16:34.666Z,0.80
2019-03-05T12:19:04.902Z,1.50
2019-03-05T12:21:34.020Z,0.62
2019-03-05T12:24:03.226Z,0.72
2019-03-05T12:26:32.468Z,0.70
2019-03-05T12:29:01.650Z,0.68
2019-03-05T12:31:30.891Z,0.88
2019-03-05T12:34:00.037Z,0.90
2019-03-05T12:36:29.191Z,1.00
2019-03-05T12:38:58.371Z,1.10
2019-03-05T12:41:27.523Z,1.00
2019-03-05T12:43:56.730Z,0.88
2019-03-05T12:46:25.958Z,1.30
2019-03-05T12:48:55.107Z,1.50
2019-03-05T12:51:24.264Z,1.15
2019-03-05T12:53:53.452Z,0.93
2019-03-05T12:56:24.200Z,0.70
2019-03-05T12:58:53.393Z,1.05
2019-03-05T13:01:22.683Z,0.90
2019-03-05T13:03:51.992Z,1.17
2019-03-05T13:06:21.291Z,0.82
2019-03-05T13:08:50.513Z,0.80
2019-03-05T13:11:19.701Z,0.70
2019-03-05T13:13:51.293Z,0.75
2019-03-05T13:16:19.764Z,0.70
2019-03-05T13:18:49.020Z,0.82
2019-03-05T13:21:18.507Z,0.90
2019-03-05T13:23:47.866Z,1.60
2019-03-05T13:26:17.141Z,0.82
2019-03-05T13:28:46.359Z,0.60
2019-03-05T13:31:16.579Z,0.95
2019-03-05T13:33:45.967Z,1.45
2019-03-05T13:36:16.648Z,0.80
2019-03-05T13:38:46.429Z,0.80
2019-03-05T13:41:16.771Z,1.50
2019-03-05T13:43:46.225Z,1.75
2019-03-05T13:46:15.680Z,1.40
2019-03-05T13:48:59.259Z,1.55
2019-03-05T13:51:33.899Z,1.50
2019-03-05T13:54:22.168Z,1.10
2019-03-05T13:57:11.226Z,1.77
2019-03-05T13:59:43.884Z,1.37
2019-03-05T14:02:14.414Z,1.30
2019-03-05T14:04:45.079Z,1.20
2019-03-05T14:07:24.612Z,1.80
2019-03-05T14:09:53.904Z,1.65
2019-03-05T14:12:24.209Z,1.27
2019-03-05T14:14:54.542Z,1.00
2019-03-05T14:17:25.455Z,1.90
2019-03-05T14:19:58.485Z,1.60
2019-03-05T14:22:31.041Z,1.45
2019-03-05T14:25:03.147Z,1.37
2019-03-05T14:27:34.027Z,1.20
2019-03-05T14:30:03.314Z,0.90
2019-03-05T14:32:34.362Z,0.70
2019-03-05T14:35:04.000Z,0.53
2019-03-05T14:37:33.392Z,0.55
2019-03-05T14:40:23.028Z,0.70
2019-03-05T14:42:33.521Z,0.50
2019-03-05T14:45:02.742Z,0.85
2019-03-05T14:47:33.491Z,0.90
2019-03-05T14:50:02.787Z,0.53
2019-03-05T14:52:34.534Z,0.75
2019-03-05T14:55:04.304Z,0.42
2019-03-05T14:57:33.553Z,0.65
2019-03-05T15:00:02.670Z,0.55
2019-03-05T15:02:33.204Z,0.85
2019-03-05T15:05:02.397Z,0.98
2019-03-05T15:07:31.700Z,0.70
2019-03-05T15:10:00.909Z,1.00
2019-03-05T15:12:30.557Z,1.05
2019-03-05T15:15:01.303Z,1.12
2019-03-05T15:17:30.917Z,1.00
2019-03-05T15:20:00.061Z,0.65
2019-03-05T15:22:30.407Z,0.60
2019-03-05T15:24:59.563Z,0.65
2019-03-05T15:27:28.726Z,0.95
2019-03-05T15:29:59.128Z,1.30
2019-03-05T15:32:29.546Z,1.12
2019-03-05T15:35:01.613Z,1.27
2019-03-05T15:37:31.967Z,0.62
2019-03-05T15:40:02.195Z,0.70
2019-03-05T15:42:31.614Z,0.57
2019-03-05T15:45:00.747Z,0.80
2019-03-05T15:47:29.971Z,0.65
2019-03-05T15:50:00.527Z,0.90
2019-03-05T15:52:31.678Z,0.80
2019-03-05T15:55:00.947Z,0.70
2019-03-05T15:57:30.350Z,0.72
2019-03-05T15:59:59.457Z,0.80
2019-03-05T16:02:28.745Z,1.15
2019-03-05T16:04:59.612Z,1.52
2019-03-05T16:07:28.750Z,1.00
2019-03-05T16:09:57.989Z,1.00
2019-03-05T16:12:27.154Z,1.00
2019-03-05T16:14:56.704Z,0.93
2019-03-05T16:17:28.153Z,0.90
2019-03-05T16:19:56.903Z,0.80
2019-03-05T16:22:26.218Z,0.90
2019-03-05T16:24:55.319Z,0.98
2019-03-05T16:27:31.509Z,0.75
2019-03-05T16:30:00.815Z,0.85
2019-03-05T16:32:39.029Z,0.88
2019-03-05T16:35:10.845Z,1.10
2019-03-05T16:37:49.336Z,1.00
2019-03-05T16:40:37.319Z,1.07
2019-03-05T16:43:11.319Z,0.70
2019-03-05T16:45:44.558Z,0.93
2019-03-05T16:48:15.956Z,0.90
2019-03-05T16:51:02.153Z,1.35
2019-03-05T16:53:52.801Z,1.20
2019-03-05T16:56:30.007Z,0.90
2019-03-05T16:59:10.103Z,1.05
2019-03-05T17:01:44.293Z,1.10
2019-03-05T17:04:18.294Z,1.20
2019-03-05T17:06:52.310Z,1.30
2019-03-05T17:09:37.199Z,1.50
2019-03-05T17:12:06.582Z,1.30
2019-03-05T17:14:35.794Z,1.42
2019-03-05T17:17:05.073Z,1.52
2019-03-05T17:19:34.490Z,1.87
2019-03-05T17:22:04.523Z,1.32
2019-03-05T17:24:34.853Z,1.50
2019-03-05T17:27:04.090Z,1.70
2019-03-05T17:29:33.303Z,1.42
2019-03-05T17:32:04.345Z,1.60
2019-03-05T17:34:33.490Z,1.77
2019-03-05T17:37:03.584Z,1.95
2019-03-05T17:39:33.178Z,1.95
2019-03-05T17:42:02.615Z,1.65
2019-03-05T17:44:32.204Z,1.75
2019-03-05T17:47:03.292Z,1.70
2019-03-05T17:49:32.655Z,2.12
2019-03-05T17:52:02.443Z,3.17
2019-03-05T17:54:31.731Z,5.97
2019-03-05T17:57:01.144Z,3.83
2019-03-05T17:59:30.466Z,3.85
2019-03-05T18:01:59.968Z,3.10
2019-03-05T18:04:29.266Z,2.90
2019-03-05T18:06:58.796Z,2.50
2019-03-05T18:09:28.175Z,2.55
2019-03-05T18:11:57.683Z,2.85
2019-03-05T18:14:26.970Z,2.33
2019-03-05T18:16:56.278Z,2.33
2019-03-05T18:19:25.771Z,2.05
2019-03-05T18:21:55.163Z,2.12
2019-03-05T18:24:25.594Z,2.30
2019-03-05T18:26:54.907Z,5.67
2019-03-05T18:29:24.151Z,6.78
2019-03-05T18:31:53.400Z,3.08
2019-03-05T18:34:22.640Z,2.87
2019-03-05T18:36:51.886Z,2.58
2019-03-05T18:39:21.193Z,2.10
2019-03-05T18:41:50.417Z,2.65
2019-03-05T18:44:19.763Z,2.85
2019-03-05T18:46:48.955Z,2.05
2019-03-05T18:49:18.176Z,2.08
2019-03-05T18:51:47.383Z,2.22
2019-03-05T18:54:16.545Z,2.22
2019-03-05T18:56:45.818Z,2.10
2019-03-05T18:59:15.063Z,2.20
2019-03-05T19:01:44.184Z,2.70
2019-03-05T19:04:13.436Z,2.20
2019-03-05T19:06:43.611Z,2.60
2019-03-05T19:09:12.851Z,2.47
2019-03-05T19:11:43.266Z,2.80
2019-03-05T19:14:12.491Z,2.47
2019-03-05T19:16:41.711Z,2.10
2019-03-05T19:19:11.178Z,1.72
2019-03-05T19:21:40.352Z,2.02
2019-03-05T19:24:09.588Z,2.42
2019-03-05T19:26:38.745Z,1.87
2019-03-05T19:29:07.977Z,1.87
2019-03-05T19:31:37.213Z,2.45
2019-03-05T19:34:06.442Z,2.52
2019-03-05T19:36:35.743Z,2.20
2019-03-05T19:39:06.004Z,2.45
2019-03-05T19:41:36.780Z,4.28
2019-03-05T19:44:06.031Z,3.15
2019-03-05T19:46:35.203Z,2.65
2019-03-05T19:49:04.363Z,2.67
2019-03-05T19:51:33.579Z,2.65
2019-03-05T19:54:02.737Z,6.03
2019-03-05T19:56:31.972Z,6.20
2019-03-05T19:59:01.127Z,2.70
2019-03-05T20:01:31.984Z,2.72
2019-03-05T20:04:01.192Z,2.65
2019-03-05T20:06:30.639Z,2.25
2019-03-05T20:08:59.885Z,3.52
2019-03-05T20:11:29.165Z,5.72
2019-03-05T20:13:58.413Z,4.67
2019-03-05T20:16:27.615Z,2.85
2019-03-05T20:18:56.861Z,2.87
2019-03-05T20:21:26.050Z,1.72
2019-03-05T20:23:55.288Z,1.80
2019-03-05T20:26:24.545Z,1.87
2019-03-05T20:28:53.737Z,1.92
2019-03-05T20:31:22.991Z,2.37
2019-03-05T20:33:52.215Z,1.90
2019-03-05T20:36:21.460Z,1.70
2019-03-05T20:38:50.765Z,2.00
2019-03-05T20:41:20.285Z,3.60
2019-03-05T20:43:49.674Z,4.25
2019-03-05T20:46:20.103Z,2.70
2019-03-05T20:48:49.319Z,2.70
2019-03-05T20:51:18.562Z,2.50
2019-03-05T20:53:47.896Z,1.98
2019-03-05T20:56:17.301Z,2.10
2019-03-05T20:58:46.606Z,2.90
2019-03-05T21:01:15.786Z,2.87
2019-03-05T21:03:45.121Z,2.90
2019-03-05T21:06:14.315Z,2.22
2019-03-05T21:08:43.539Z,2.12
2019-03-05T21:11:12.817Z,2.98
2019-03-05T21:13:42.029Z,2.20
2019-03-05T21:16:11.270Z,2.80
2019-03-05T21:18:40.525Z,2.77
2019-03-05T21:21:11.777Z,2.47
2019-03-05T21:23:41.244Z,2.83
2019-03-05T21:26:11.478Z,2.90
2019-03-05T21:28:42.592Z,2.75
2019-03-05T21:31:11.597Z,2.52
2019-03-05T21:33:40.811Z,2.80
2019-03-05T21:36:10.098Z,2.42
2019-03-05T21:38:39.258Z,2.80
2019-03-05T21:41:08.375Z,2.40
2019-03-05T21:43:39.129Z,3.00
2019-03-05T21:46:10.002Z,2.72
2019-03-05T21:48:39.155Z,3.17
2019-03-05T21:51:08.462Z,2.98
2019-03-05T21:53:37.718Z,3.20
2019-03-05T21:56:06.955Z,3.10
2019-03-05T21:58:36.357Z,3.50
2019-03-05T22:01:05.593Z,3.35
2019-03-05T22:03:34.962Z,3.50
2019-03-05T22:06:04.475Z,3.75
2019-03-05T22:08:33.872Z,3.98
2019-03-05T22:11:03.184Z,3.85
2019-03-05T22:13:32.459Z,3.87
2019-03-05T22:16:01.681Z,4.22
2019-03-05T22:18:31.184Z,3.92
2019-03-05T22:21:00.472Z,3.95
2019-03-05T22:23:29.769Z,4.40
2019-03-05T22:25:58.959Z,4.65
2019-03-05T22:28:28.275Z,4.60
2019-03-05T22:30:57.687Z,3.60
2019-03-05T22:33:26.960Z,4.10
2019-03-05T22:35:56.265Z,4.95
2019-03-05T22:38:28.430Z,4.20
2019-03-05T22:40:57.522Z,4.20
2019-03-05T22:43:26.664Z,5.12
2019-03-05T22:45:57.267Z,4.60
2019-03-05T22:48:26.479Z,4.60
2019-03-05T22:50:55.772Z,4.40
2019-03-05T22:53:25.243Z,4.83
2019-03-05T22:55:54.588Z,4.72
2019-03-05T22:58:23.990Z,5.10
2019-03-05T23:00:59.228Z,4.60
2019-03-05T23:03:30.804Z,5.35
2019-03-05T23:06:01.358Z,5.33
2019-03-05T23:08:30.592Z,5.05
2019-03-05T23:11:00.196Z,5.80
2019-03-05T23:13:29.756Z,5.00
2019-03-05T23:15:59.411Z,5.55
2019-03-05T23:18:28.706Z,5.37
2019-03-05T23:20:57.991Z,6.10
2019-03-05T23:23:27.305Z,5.50
2019-03-05T23:25:56.595Z,5.30
2019-03-05T23:28:26.004Z,6.08
2019-03-05T23:30:56.450Z,7.17
2019-03-05T23:33:25.620Z,6.35
2019-03-05T23:35:54.835Z,6.85
2019-03-05T23:38:24.148Z,7.10
2019-03-05T23:40:53.473Z,7.03
2019-03-05T23:43:22.735Z,6.90
2019-03-05T23:45:51.955Z,7.55
2019-03-05T23:48:22.210Z,7.25
2019-03-05T23:50:52.532Z,8.05
2019-03-05T23:53:21.840Z,8.05
2019-03-05T23:55:51.191Z,8.78
2019-03-05T23:58:20.496Z,8.40
